Time;durP1;ratioP1;P1;durP2;ratioP2;P2;SDS_P1;SDS_P2;PMS_P1;PMS_P2;Temp;Humidity;BMP_temperature;BMP_pressure;BME280_temperature;BME280_humidity;BME280_pressure;Samples;Min_cycle;Max_cycle;Signal;HPM_P1;HPM_P2
2022/01/08 00:01:41;;;;;;;26.33;15.50;;;;;;;0.10;97.79;100928.00;4995432;28;20027;-57
2022/01/08 00:04:07;;;;;;;25.38;14.70;;;;;;;0.09;97.44;100929.09;4995335;28;20078;-56
2022/01/08 00:06:32;;;;;;;23.77;14.65;;;;;;;0.05;97.70;100924.34;4995698;28;20025;-58
2022/01/08 00:08:57;;;;;;;30.08;15.02;;;;;;;0.14;97.66;100939.28;4995255;28;20027;-55
2022/01/08 00:11:26;;;;;;;24.60;14.65;;;;;;;0.16;97.89;100937.13;4995612;28;20041;-57
2022/01/08 00:13:52;;;;;;;27.23;15.07;;;;;;;0.15;97.66;100944.47;4995559;28;20032;-56
2022/01/08 00:16:17;;;;;;;25.17;15.50;;;;;;;0.19;97.15;100944.00;4995426;28;20062;-56
2022/01/08 00:18:42;;;;;;;25.40;14.00;;;;;;;0.22;97.45;100940.81;4995078;28;20030;-56
2022/01/08 00:21:08;;;;;;;25.52;14.30;;;;;;;0.20;97.61;100941.06;4994351;28;20031;-57
2022/01/08 00:23:33;;;;;;;25.75;14.65;;;;;;;0.19;97.47;100944.00;4995141;28;20044;-57
2022/01/08 00:25:58;;;;;;;25.58;14.18;;;;;;;0.17;96.71;100949.66;4995057;28;20026;-56
2022/01/08 00:28:27;;;;;;;26.05;14.50;;;;;;;0.13;97.06;100943.88;4994772;28;20033;-57
2022/01/08 00:30:53;;;;;;;24.45;13.77;;;;;;;0.20;97.00;100948.38;4994534;28;20022;-56
2022/01/08 00:33:19;;;;;;;23.77;14.38;;;;;;;0.19;97.05;100949.47;4995345;28;20022;-58
2022/01/08 00:35:44;;;;;;;25.27;14.80;;;;;;;0.17;96.89;100949.66;4995050;28;20430;-58
2022/01/08 00:38:09;;;;;;;25.42;14.13;;;;;;;0.14;96.75;100948.25;4995092;28;20435;-58
2022/01/08 00:40:35;;;;;;;26.27;14.60;;;;;;;0.18;96.43;100950.53;4995184;28;20504;-59
2022/01/08 00:43:00;;;;;;;26.05;14.02;;;;;;;0.17;96.75;100959.75;4994764;28;20481;-58
2022/01/08 00:45:25;;;;;;;25.75;14.88;;;;;;;0.19;96.32;100963.88;4994758;28;20488;-57
2022/01/08 00:47:51;;;;;;;25.92;13.95;;;;;;;0.15;96.56;100963.53;4994716;28;20037;-58
2022/01/08 00:50:16;;;;;;;23.52;13.82;;;;;;;0.10;96.16;100963.38;4995034;28;20026;-58
2022/01/08 00:52:42;;;;;;;26.23;14.80;;;;;;;0.10;96.23;100971.53;4994588;28;20027;-56
2022/01/08 00:55:09;;;;;;;25.55;13.50;;;;;;;0.09;96.63;100974.50;4994693;28;20049;-57
2022/01/08 00:57:35;;;;;;;24.00;13.95;;;;;;;0.09;96.53;100983.50;4993940;28;20072;-57
2022/01/08 01:00:01;;;;;;;24.58;13.85;;;;;;;0.11;96.48;100975.91;4994234;28;20035;-57
2022/01/08 01:02:26;;;;;;;25.08;14.07;;;;;;;0.11;96.62;100972.38;4994002;28;20030;-56
2022/01/08 01:04:51;;;;;;;25.48;13.82;;;;;;;0.13;96.41;100986.59;4994406;28;20037;-58
2022/01/08 01:07:17;;;;;;;25.35;14.25;;;;;;;0.12;95.93;100980.31;4994532;28;20026;-56
2022/01/08 01:09:42;;;;;;;25.08;13.00;;;;;;;0.15;96.25;100974.41;4994630;28;20038;-57
2022/01/08 01:12:08;;;;;;;23.33;13.00;;;;;;;0.20;95.75;100979.16;4994360;28;20030;-56
2022/01/08 01:14:33;;;;;;;24.45;13.25;;;;;;;0.24;96.76;100982.22;4994052;28;20037;-56
2022/01/08 01:16:59;;;;;;;25.75;13.85;;;;;;;0.26;96.29;100978.19;4993560;28;20462;-57
2022/01/08 01:19:24;;;;;;;26.35;13.95;;;;;;;0.26;95.91;100980.91;4993651;28;20023;-58
2022/01/08 01:21:52;;;;;;;23.48;13.40;;;;;;;0.23;96.02;100967.81;4993761;28;20032;-58
2022/01/08 01:24:21;;;;;;;24.23;13.63;;;;;;;0.20;96.02;100960.09;4994019;28;20026;-57
2022/01/08 01:29:56;;;;;;;24.08;13.45;;;;;;;0.14;96.35;100969.22;4970652;28;20133;-57
2022/01/08 01:43:26;;;;;;;24.20;12.85;;;;;;;0.08;95.72;100976.41;4994280;28;20041;-58
2022/01/08 01:48:35;;;;;;;24.75;13.82;;;;;;;0.03;96.20;100983.59;4993761;28;20032;-56
2022/01/08 01:51:01;;;;;;;23.65;12.68;;;;;;;0.01;95.96;100985.72;4993675;28;20038;-57
2022/01/08 01:53:26;;;;;;;24.98;13.27;;;;;;;-0.04;96.19;100981.78;4993649;28;20022;-57
2022/01/08 01:55:52;;;;;;;23.63;13.38;;;;;;;-0.04;96.00;100989.94;4993463;28;20061;-56
2022/01/08 01:58:18;;;;;;;24.67;13.43;;;;;;;-0.05;95.97;100985.56;4993436;28;20493;-56
2022/01/08 02:00:45;;;;;;;24.33;12.95;;;;;;;-0.15;96.10;100969.00;4993746;28;20093;-56
2022/01/08 02:03:10;;;;;;;24.08;13.45;;;;;;;-0.10;95.87;100973.75;4993053;28;20359;-56
2022/01/08 02:05:36;;;;;;;25.45;14.50;;;;;;;-0.13;95.92;100971.47;4993461;28;20053;-56
2022/01/08 02:08:01;;;;;;;26.33;13.60;;;;;;;-0.16;96.19;100980.94;4992640;28;20421;-56
2022/01/08 02:10:26;;;;;;;24.85;13.95;;;;;;;-0.24;96.02;100976.66;4993659;28;20022;-56
2022/01/08 02:12:52;;;;;;;24.73;13.27;;;;;;;-0.28;95.87;100971.91;4993798;28;20602;-58
2022/01/08 02:15:17;;;;;;;26.08;13.85;;;;;;;-0.28;96.15;100969.19;4993359;28;20030;-56
2022/01/08 02:17:43;;;;;;;25.00;14.00;;;;;;;-0.27;96.61;100974.38;4992819;28;20110;-56
2022/01/08 02:20:09;;;;;;;24.48;14.02;;;;;;;-0.30;96.27;100969.41;4993297;28;20026;-56
2022/01/08 02:22:35;;;;;;;30.05;14.75;;;;;;;-0.36;96.39;100973.03;4993452;28;20477;-56
2022/01/08 02:25:01;;;;;;;26.92;15.25;;;;;;;-0.39;96.86;100978.97;4993823;28;20037;-56
2022/01/08 02:27:26;;;;;;;26.90;14.25;;;;;;;-0.43;96.33;100975.03;4993076;28;20046;-56
2022/01/08 02:29:52;;;;;;;27.75;16.13;;;;;;;-0.47;96.38;100986.34;4993425;28;20105;-56
2022/01/08 02:32:20;;;;;;;25.35;14.35;;;;;;;-0.50;96.45;100978.66;4993082;28;20026;-56
2022/01/08 02:34:47;;;;;;;26.58;15.32;;;;;;;-0.55;96.74;100970.34;4993016;28;20500;-56
2022/01/08 02:37:15;;;;;;;30.15;16.35;;;;;;;-0.52;96.73;100978.06;4991410;28;20026;-56
2022/01/08 02:39:42;;;;;;;29.83;16.15;;;;;;;-0.55;96.85;100986.66;4991832;28;20023;-58
2022/01/08 02:42:11;;;;;;;28.02;16.70;;;;;;;-0.66;97.09;100974.69;4993732;28;20026;-56
2022/01/08 02:44:37;;;;;;;29.02;17.10;;;;;;;-0.58;97.29;100983.56;4993140;28;20113;-56
2022/01/08 02:47:02;;;;;;;28.23;16.67;;;;;;;-0.57;97.07;101001.53;4993109;28;20113;-56
2022/01/08 02:49:31;;;;;;;27.27;15.60;;;;;;;-0.59;96.89;100990.06;4992942;28;20069;-56
2022/01/08 02:51:57;;;;;;;29.98;16.27;;;;;;;-0.63;96.81;100995.13;4993417;28;20033;-56
2022/01/08 02:54:22;;;;;;;29.35;16.85;;;;;;;-0.56;96.99;100998.59;4993401;28;20054;-57
2022/01/08 02:56:48;;;;;;;29.30;16.83;;;;;;;-0.54;97.13;100998.38;4993032;28;20068;-56
2022/01/08 02:59:15;;;;;;;32.80;19.10;;;;;;;-0.54;97.32;100993.75;4992695;28;20054;-56
2022/01/08 03:01:41;;;;;;;29.58;17.27;;;;;;;-0.51;96.75;100996.03;4993331;28;20046;-56
2022/01/08 03:04:07;;;;;;;27.95;16.85;;;;;;;-0.48;97.24;100994.75;4992102;28;20026;-56
2022/01/08 03:06:32;;;;;;;30.45;17.98;;;;;;;-0.50;97.44;100999.56;4992984;28;20026;-57
2022/01/08 03:08:58;;;;;;;30.70;18.20;;;;;;;-0.51;97.65;100996.03;4992368;28;20037;-56
2022/01/08 03:11:23;;;;;;;30.67;17.45;;;;;;;-0.50;97.69;100997.69;4991909;28;20053;-55
2022/01/08 03:13:49;;;;;;;32.28;17.58;;;;;;;-0.50;97.47;100992.25;4991956;28;20034;-56
2022/01/08 03:16:14;;;;;;;29.73;17.27;;;;;;;-0.52;97.09;100986.22;4992269;28;20022;-56
2022/01/08 03:18:40;;;;;;;30.60;16.70;;;;;;;-0.49;97.25;100988.50;4992476;28;20080;-56
2022/01/08 03:21:16;;;;;;;30.50;16.83;;;;;;;-0.50;97.31;100986.81;4995896;28;20026;-57
2022/01/08 03:23:50;;;;;;;28.90;17.65;;;;;;;-0.47;97.08;100989.06;4996444;28;20030;-57
2022/01/08 03:26:17;;;;;;;28.80;16.63;;;;;;;-0.51;97.18;100982.44;4996601;28;20036;-57
2022/01/08 03:28:43;;;;;;;29.45;16.50;;;;;;;-0.46;97.59;100989.91;4996320;28;20030;-57
2022/01/08 03:31:09;;;;;;;29.88;16.63;;;;;;;-0.48;97.30;100992.88;4995879;28;20039;-57
2022/01/08 03:33:35;;;;;;;31.27;17.35;;;;;;;-0.51;97.31;100987.88;4996230;28;20030;-59
2022/01/08 03:36:00;;;;;;;31.33;17.33;;;;;;;-0.47;97.80;100994.50;4995658;28;20441;-57
2022/01/08 03:38:26;;;;;;;30.95;17.20;;;;;;;-0.51;97.77;100997.91;4995969;28;20037;-57
2022/01/08 03:40:51;;;;;;;30.73;17.30;;;;;;;-0.48;97.26;101008.34;4995638;28;20030;-57
2022/01/08 03:43:16;;;;;;;29.77;16.52;;;;;;;-0.51;97.68;101004.19;4996008;28;20382;-57
2022/01/08 03:45:42;;;;;;;29.48;18.05;;;;;;;-0.53;97.14;101000.03;4996145;28;20034;-57
2022/01/08 03:50:32;;;;;;;30.55;17.10;;;;;;;-0.53;97.83;101008.19;4995693;28;20085;-57
2022/01/08 03:52:58;;;;;;;28.45;16.50;;;;;;;-0.51;97.58;101000.63;4995729;28;20022;-57
2022/01/08 03:55:23;;;;;;;27.38;15.55;;;;;;;-0.51;97.21;101009.63;4995723;28;20137;-57
2022/01/08 03:57:48;;;;;;;29.63;16.48;;;;;;;-0.52;97.68;100999.00;4995769;28;20474;-57
2022/01/08 04:00:14;;;;;;;29.08;16.48;;;;;;;-0.55;97.79;101007.59;4995921;28;20022;-58
2022/01/08 04:02:39;;;;;;;28.08;15.63;;;;;;;-0.53;97.83;100992.72;4995592;28;20038;-57
2022/01/08 04:05:05;;;;;;;29.48;16.13;;;;;;;-0.58;97.81;100997.16;4995740;28;20041;-56
2022/01/08 04:07:31;;;;;;;28.95;15.30;;;;;;;-0.66;97.65;100993.69;4995338;28;20474;-57
2022/01/08 04:09:56;;;;;;;28.75;15.23;;;;;;;-0.65;97.37;101011.66;4995831;28;20023;-57
2022/01/08 04:12:31;;;;;;;28.80;16.33;;;;;;;-0.65;97.37;101008.09;4993991;28;20073;-57
2022/01/08 04:15:06;;;;;;;28.95;15.90;;;;;;;-0.66;97.59;101009.19;4995669;28;20030;-56
2022/01/08 04:17:31;;;;;;;29.67;16.83;;;;;;;-0.71;97.72;101020.72;4995751;28;20026;-57
2022/01/08 04:19:56;;;;;;;30.25;16.05;;;;;;;-0.71;97.46;101020.72;4995242;28;20029;-56
2022/01/08 04:22:23;;;;;;;31.45;17.33;;;;;;;-0.75;97.56;101019.53;4994790;28;20029;-58
2022/01/08 04:24:49;;;;;;;29.33;15.73;;;;;;;-0.74;97.71;101015.75;4995394;28;20064;-57
2022/01/08 04:27:15;;;;;;;29.20;15.55;;;;;;;-0.76;97.55;101020.56;4995466;28;20066;-57
2022/01/08 04:29:41;;;;;;;29.50;16.38;;;;;;;-0.74;97.94;101026.63;4995221;28;20617;-57
2022/01/08 04:32:06;;;;;;;27.92;15.23;;;;;;;-0.76;98.08;101017.84;4995318;28;20040;-57
2022/01/08 04:34:32;;;;;;;32.55;17.23;;;;;;;-0.77;98.28;101027.06;4995042;28;20473;-57
2022/01/08 04:36:57;;;;;;;27.25;14.75;;;;;;;-0.76;97.72;101025.19;4994645;28;20492;-57
2022/01/08 04:39:22;;;;;;;28.50;15.07;;;;;;;-0.74;97.91;101040.19;4995695;28;20084;-58
2022/01/08 04:41:47;;;;;;;28.83;15.77;;;;;;;-0.69;97.59;101040.34;4995256;28;20433;-58
2022/01/08 04:44:13;;;;;;;30.58;15.73;;;;;;;-0.70;98.45;101035.97;4994553;28;20035;-56
2022/01/08 04:46:40;;;;;;;27.58;15.15;;;;;;;-0.68;98.08;101038.47;4995275;28;20470;-57
2022/01/08 04:49:06;;;;;;;27.95;16.42;;;;;;;-0.67;97.71;101037.41;4994260;28;20521;-57
2022/01/08 04:51:31;;;;;;;28.83;15.77;;;;;;;-0.68;98.38;101033.03;4993232;28;20027;-57
2022/01/08 04:53:56;;;;;;;31.08;16.63;;;;;;;-0.71;98.04;101031.56;4994288;28;20046;-57
2022/01/08 04:56:22;;;;;;;29.55;15.98;;;;;;;-0.69;97.66;101037.63;4995145;28;20038;-56
2022/01/08 04:58:47;;;;;;;28.10;16.67;;;;;;;-0.74;97.86;101034.78;4994431;28;20034;-58
2022/01/08 05:01:14;;;;;;;32.67;16.77;;;;;;;-0.79;98.10;101038.16;4995310;28;20031;-56
2022/01/08 05:03:40;;;;;;;28.23;15.77;;;;;;;-0.74;98.21;101044.78;4994319;28;20089;-58
2022/01/08 05:06:05;;;;;;;28.83;15.70;;;;;;;-0.73;98.08;101050.00;4995056;28;20026;-56
2022/01/08 05:08:30;;;;;;;27.60;15.55;;;;;;;-0.69;98.09;101047.69;4993954;28;20030;-55
2022/01/08 05:10:56;;;;;;;27.45;15.27;;;;;;;-0.76;97.95;101042.31;4994161;28;20038;-56
2022/01/08 05:13:21;;;;;;;29.50;15.82;;;;;;;-0.74;98.00;101053.78;4994039;28;20030;-56
2022/01/08 05:15:46;;;;;;;29.58;16.10;;;;;;;-0.74;98.53;101055.66;4993927;28;20474;-55
2022/01/08 05:18:12;;;;;;;30.55;16.88;;;;;;;-0.73;98.44;101054.59;4993987;28;20078;-55
2022/01/08 05:20:41;;;;;;;27.88;17.05;;;;;;;-0.75;98.26;101054.84;4994450;28;20440;-56
2022/01/08 05:23:06;;;;;;;26.10;15.75;;;;;;;-0.76;98.60;101061.31;4994160;28;20186;-55
2022/01/08 05:25:32;;;;;;;30.10;16.95;;;;;;;-0.77;98.89;101051.50;4993870;28;20049;-55
2022/01/08 05:27:58;;;;;;;28.25;17.15;;;;;;;-0.75;98.71;101048.56;4993936;28;20508;-56
2022/01/08 05:30:24;;;;;;;26.50;15.82;;;;;;;-0.74;98.36;101050.22;4993747;28;20034;-57
2022/01/08 05:32:50;;;;;;;28.35;16.15;;;;;;;-0.79;98.80;101048.19;4994235;28;20030;-57
2022/01/08 05:35:16;;;;;;;27.42;16.58;;;;;;;-0.79;98.50;101057.19;4994225;28;20031;-57
2022/01/08 05:37:41;;;;;;;29.83;17.15;;;;;;;-0.79;98.88;101054.47;4993926;28;20489;-57
2022/01/08 05:40:08;;;;;;;30.17;16.38;;;;;;;-0.80;99.32;101051.94;4992591;28;20033;-57
2022/01/08 05:42:34;;;;;;;27.40;16.02;;;;;;;-0.77;98.54;101061.56;4993348;28;20111;-57
2022/01/08 05:44:59;;;;;;;28.58;15.73;;;;;;;-0.77;98.70;101059.66;4993665;28;20500;-58
2022/01/08 05:47:29;;;;;;;27.10;15.52;;;;;;;-0.79;98.82;101045.47;4993931;28;20026;-58
2022/01/08 05:49:54;;;;;;;26.38;16.50;;;;;;;-0.77;98.79;101056.13;4994171;28;20034;-58
2022/01/08 05:52:20;;;;;;;25.13;15.38;;;;;;;-0.74;99.03;101063.81;4993620;28;20029;-57
2022/01/08 05:54:45;;;;;;;27.50;15.40;;;;;;;-0.68;99.21;101061.03;4993448;28;20096;-58
2022/01/08 05:57:10;;;;;;;26.10;15.57;;;;;;;-0.68;98.60;101054.78;4993334;28;20027;-57
2022/01/08 05:59:35;;;;;;;29.27;16.27;;;;;;;-0.65;98.95;101067.88;4993703;28;20389;-57
2022/01/08 06:02:01;;;;;;;26.08;14.38;;;;;;;-0.64;99.48;101064.97;4993748;28;20022;-56
2022/01/08 06:04:26;;;;;;;28.95;15.73;;;;;;;-0.64;98.73;101069.56;4993296;28;20038;-57
2022/01/08 06:06:52;;;;;;;29.65;15.40;;;;;;;-0.60;98.84;101081.66;4993556;28;20030;-56
2022/01/08 06:09:17;;;;;;;27.50;15.38;;;;;;;-0.66;98.63;101082.56;4993495;28;20030;-56
2022/01/08 06:11:42;;;;;;;29.40;15.68;;;;;;;-0.73;99.07;101079.91;4993357;28;20026;-56
2022/01/08 06:14:08;;;;;;;29.00;15.18;;;;;;;-0.75;99.42;101084.72;4993359;28;20030;-56
2022/01/08 06:16:35;;;;;;;30.10;15.45;;;;;;;-0.76;99.06;101098.53;4993328;28;20022;-56
2022/01/08 06:19:04;;;;;;;27.10;15.50;;;;;;;-0.83;99.59;101096.69;4993322;28;20049;-56
2022/01/08 06:21:29;;;;;;;30.58;17.00;;;;;;;-0.81;99.53;101096.50;4993395;28;20045;-59
2022/01/08 06:23:54;;;;;;;30.27;15.82;;;;;;;-0.83;99.52;101101.31;4993657;28;20030;-58
2022/01/08 06:26:20;;;;;;;27.85;14.70;;;;;;;-0.83;99.72;101099.41;4992923;28;20469;-59
2022/01/08 06:28:45;;;;;;;27.83;15.82;;;;;;;-0.82;99.51;101092.94;4993553;28;20069;-59
2022/01/08 06:31:10;;;;;;;27.58;16.13;;;;;;;-0.83;100.00;101096.69;4993410;28;20478;-58
2022/01/08 06:33:35;;;;;;;29.23;17.10;;;;;;;-0.84;99.94;101091.50;4992987;28;20078;-57
2022/01/08 06:36:01;;;;;;;28.05;15.95;;;;;;;-0.80;99.78;101092.69;4993475;28;20026;-58
2022/01/08 06:38:26;;;;;;;26.20;15.90;;;;;;;-0.82;99.84;101089.41;4993416;28;20034;-57
2022/01/08 06:40:51;;;;;;;28.27;15.30;;;;;;;-0.81;99.98;101091.88;4993223;28;20613;-58
2022/01/08 06:43:16;;;;;;;25.77;15.00;;;;;;;-0.77;99.64;101081.41;4992797;28;20113;-57
2022/01/08 06:45:42;;;;;;;27.55;15.23;;;;;;;-0.72;99.86;101078.00;4993498;28;20029;-58
2022/01/08 06:48:07;;;;;;;28.40;15.73;;;;;;;-0.74;100.00;101082.81;4993744;28;20114;-58
2022/01/08 06:50:32;;;;;;;25.52;15.10;;;;;;;-0.75;99.86;101073.84;4993123;28;20027;-57
2022/01/08 06:52:58;;;;;;;25.45;15.43;;;;;;;-0.77;99.82;101073.25;4993154;28;20081;-58
2022/01/08 06:55:23;;;;;;;25.90;14.90;;;;;;;-0.79;99.48;101068.03;4994832;28;20053;-56
2022/01/08 06:57:49;;;;;;;26.25;14.07;;;;;;;-0.79;99.92;101068.03;4996399;28;20536;-56
2022/01/08 07:00:14;;;;;;;27.55;16.05;;;;;;;-0.79;100.00;101069.91;4997053;28;20456;-58
2022/01/08 07:02:39;;;;;;;26.30;15.07;;;;;;;-0.82;100.00;101071.19;4995989;28;20439;-56
2022/01/08 07:05:05;;;;;;;26.98;16.02;;;;;;;-0.83;100.00;101072.25;4996571;28;20557;-57
2022/01/08 07:07:30;;;;;;;26.33;15.25;;;;;;;-0.87;100.00;101075.63;4996814;28;20041;-56
2022/01/08 07:09:56;;;;;;;26.20;15.35;;;;;;;-0.87;99.87;101084.63;4996336;28;20105;-56
2022/01/08 07:12:21;;;;;;;25.13;13.98;;;;;;;-0.89;100.00;101084.03;4996258;28;20033;-56
2022/01/08 07:14:46;;;;;;;26.30;15.93;;;;;;;-0.88;99.91;101088.41;4996434;28;20088;-56
2022/01/08 07:17:11;;;;;;;28.38;15.15;;;;;;;-0.88;100.00;101085.69;4995843;28;20030;-56
2022/01/08 07:19:37;;;;;;;28.40;15.38;;;;;;;-0.90;99.69;101089.69;4995898;28;20026;-56
2022/01/08 07:22:02;;;;;;;26.85;15.70;;;;;;;-0.90;99.64;101087.78;4996770;28;20019;-56
2022/01/08 07:24:27;;;;;;;27.92;16.02;;;;;;;-0.95;100.00;101085.75;4996078;28;20030;-55
2022/01/08 07:26:53;;;;;;;28.75;15.48;;;;;;;-0.98;100.00;101074.50;4996276;28;20446;-56
2022/01/08 07:29:18;;;;;;;27.83;16.20;;;;;;;-1.01;100.00;101067.63;4995932;28;20035;-55
2022/01/08 07:31:43;;;;;;;29.65;16.52;;;;;;;-1.04;100.00;101067.25;4996392;28;20033;-55
2022/01/08 07:34:09;;;;;;;32.83;17.42;;;;;;;-1.03;100.00;101079.75;4995573;28;20113;-56
2022/01/08 07:36:34;;;;;;;29.02;17.95;;;;;;;-1.05;100.00;101074.56;4995939;28;20462;-58
2022/01/08 07:38:59;;;;;;;29.70;17.92;;;;;;;-1.02;100.00;101079.56;4996339;28;20038;-56
2022/01/08 07:41:24;;;;;;;33.70;18.15;;;;;;;-1.03;100.00;101069.75;4996201;28;20136;-57
2022/01/08 07:43:50;;;;;;;28.33;15.98;;;;;;;-1.02;100.00;101076.84;4996672;28;20037;-58
2022/01/08 07:46:15;;;;;;;28.60;16.50;;;;;;;-1.04;100.00;101081.66;4996435;28;20513;-57
2022/01/08 07:48:41;;;;;;;27.42;16.50;;;;;;;-1.02;100.00;101084.97;4996225;28;20066;-57
2022/01/08 07:51:06;;;;;;;32.55;19.77;;;;;;;-1.01;100.00;101073.06;4994958;28;20097;-58
2022/01/08 07:53:32;;;;;;;31.27;18.23;;;;;;;-1.01;100.00;101074.94;4995878;28;20050;-57
2022/01/08 07:55:57;;;;;;;29.23;16.42;;;;;;;-0.98;100.00;101071.78;4996040;28;20528;-57
2022/01/08 07:58:22;;;;;;;29.13;17.23;;;;;;;-0.92;100.00;101065.44;4996234;28;20053;-57
2022/01/08 08:00:48;;;;;;;31.40;18.77;;;;;;;-0.92;100.00;101065.44;4996085;28;20413;-58
2022/01/08 08:03:14;;;;;;;32.38;17.63;;;;;;;-0.89;100.00;101061.44;4996126;28;20022;-57
2022/01/08 08:05:39;;;;;;;34.60;19.90;;;;;;;-0.86;100.00;101064.56;4994249;28;20042;-57
2022/01/08 08:08:04;;;;;;;30.80;17.30;;;;;;;-0.82;100.00;101060.34;4995156;28;20018;-57
2022/01/08 08:10:29;;;;;;;33.47;19.13;;;;;;;-0.79;100.00;101054.47;4995546;28;20081;-55
2022/01/08 08:12:56;;;;;;;30.25;16.15;;;;;;;-0.75;100.00;101051.28;4995629;28;20473;-57
2022/01/08 08:15:21;;;;;;;32.20;17.80;;;;;;;-0.73;100.00;101055.44;4995714;28;20065;-57
2022/01/08 08:17:47;;;;;;;29.10;17.23;;;;;;;-0.69;100.00;101050.38;4995611;28;20375;-57
2022/01/08 08:20:13;;;;;;;26.77;15.43;;;;;;;-0.66;100.00;101055.38;4995523;28;20039;-57
2022/01/08 08:22:39;;;;;;;29.67;14.77;;;;;;;-0.60;100.00;101051.75;4995266;28;20019;-57
2022/01/08 08:25:05;;;;;;;29.02;14.95;;;;;;;-0.57;100.00;101043.16;4995049;28;20045;-57
2022/01/08 08:27:31;;;;;;;32.20;15.20;;;;;;;-0.56;100.00;101038.53;4995204;28;20026;-57
2022/01/08 08:29:56;;;;;;;31.88;16.08;;;;;;;-0.50;100.00;101041.19;4995365;28;20421;-57
2022/01/08 08:32:21;;;;;;;28.08;15.27;;;;;;;-0.48;100.00;101041.78;4995421;28;20061;-57
2022/01/08 08:34:47;;;;;;;32.35;15.60;;;;;;;-0.47;100.00;101038.00;4995392;28;20034;-57
2022/01/08 08:37:12;;;;;;;28.70;15.45;;;;;;;-0.47;100.00;101035.28;4995334;28;20030;-57
2022/01/08 08:39:37;;;;;;;27.92;14.43;;;;;;;-0.43;100.00;101040.25;4995240;28;20041;-56
2022/01/08 08:42:03;;;;;;;29.35;15.18;;;;;;;-0.43;100.00;101027.53;4995130;28;20078;-57
2022/01/08 08:44:28;;;;;;;26.08;13.43;;;;;;;-0.41;100.00;101024.56;4995197;28;20034;-58
2022/01/08 08:46:54;;;;;;;27.55;15.50;;;;;;;-0.37;100.00;101031.19;4995343;28;20470;-57
2022/01/08 08:49:20;;;;;;;28.55;15.05;;;;;;;-0.34;100.00;101022.59;4995014;28;20042;-58
2022/01/08 08:51:45;;;;;;;30.83;16.35;;;;;;;-0.34;100.00;101022.59;4995226;28;20164;-58
2022/01/08 08:54:10;;;;;;;31.10;15.77;;;;;;;-0.30;100.00;101031.09;4994595;28;20517;-57
2022/01/08 08:56:38;;;;;;;33.75;16.45;;;;;;;-0.28;100.00;101024.38;4994944;28;20433;-58
2022/01/08 08:59:03;;;;;;;29.60;15.55;;;;;;;-0.27;100.00;101027.94;4994964;28;20386;-57
2022/01/08 09:01:29;;;;;;;29.70;15.05;;;;;;;-0.23;100.00;101031.84;4994598;28;20508;-57
2022/01/08 09:03:54;;;;;;;28.33;15.60;;;;;;;-0.23;100.00;101027.25;4988953;28;20378;-57
2022/01/08 09:06:19;;;;;;;32.42;17.67;;;;;;;-0.18;100.00;101034.72;4973144;28;20100;-57
2022/01/08 09:08:45;;;;;;;28.88;15.27;;;;;;;-0.14;100.00;101026.94;4973104;28;20027;-58
2022/01/08 09:11:10;;;;;;;27.05;14.75;;;;;;;-0.11;100.00;101032.72;4973211;28;20034;-62
2022/01/08 09:13:35;;;;;;;29.33;16.30;;;;;;;-0.10;100.00;101025.44;4973027;28;20478;-56
2022/01/08 09:16:01;;;;;;;28.95;15.27;;;;;;;-0.05;100.00;101031.00;4973082;28;20071;-57
2022/01/08 09:18:27;;;;;;;33.50;17.17;;;;;;;-0.05;100.00;101026.38;4972813;28;20037;-59
2022/01/08 09:20:52;;;;;;;32.22;16.92;;;;;;;0.01;100.00;101021.91;4973080;28;20534;-57
2022/01/08 09:23:17;;;;;;;30.73;17.40;;;;;;;0.03;100.00;101021.69;4972749;28;20540;-57
2022/01/08 09:25:43;;;;;;;33.28;17.35;;;;;;;0.12;100.00;101010.22;4971381;28;20034;-57
2022/01/08 09:28:08;;;;;;;32.67;18.90;;;;;;;0.13;100.00;101008.34;4972467;28;20122;-57
2022/01/08 09:30:33;;;;;;;33.13;17.55;;;;;;;0.19;100.00;101006.59;4972737;28;20034;-57
2022/01/08 09:32:59;;;;;;;31.83;16.85;;;;;;;0.21;100.00;101015.34;4972770;28;20023;-59
2022/01/08 09:35:25;;;;;;;29.80;17.08;;;;;;;0.25;100.00;101014.63;4972701;28;20391;-57
2022/01/08 09:37:51;;;;;;;35.50;18.23;;;;;;;0.27;100.00;101007.06;4972569;28;20041;-59
2022/01/08 09:40:18;;;;;;;30.63;17.42;;;;;;;0.34;100.00;101000.69;4972603;28;20398;-56
2022/01/08 09:42:44;;;;;;;33.17;18.20;;;;;;;0.38;100.00;101004.63;4972512;28;20557;-57
2022/01/08 09:45:11;;;;;;;33.00;16.70;;;;;;;0.40;100.00;100999.78;4972553;28;20073;-56
2022/01/08 09:47:37;;;;;;;32.80;16.85;;;;;;;0.46;100.00;100986.06;4972319;28;20089;-56
2022/01/08 09:50:03;;;;;;;36.47;17.98;;;;;;;0.47;100.00;100981.44;4972563;28;20116;-56
2022/01/08 09:52:33;;;;;;;34.63;17.70;;;;;;;0.50;100.00;100980.97;4972283;28;20561;-58
2022/01/08 09:54:59;;;;;;;35.97;18.77;;;;;;;0.54;100.00;100975.88;4970322;28;20062;-58
2022/01/08 09:57:24;;;;;;;34.42;19.35;;;;;;;0.58;100.00;100952.53;4972398;28;20487;-56
2022/01/08 09:59:50;;;;;;;50.40;18.25;;;;;;;0.64;99.87;100957.06;4972432;28;20027;-56
2022/01/08 10:02:21;;;;;;;33.40;17.55;;;;;;;0.55;99.26;100934.78;4970463;28;20029;-56
2022/01/08 10:04:47;;;;;;;34.80;18.42;;;;;;;0.67;99.65;100940.22;4972356;28;20027;-56
2022/01/08 10:07:23;;;;;;;34.10;19.48;;;;;;;0.74;99.43;100940.13;4972406;28;20042;-56
2022/01/08 10:10:12;;;;;;;33.92;19.48;;;;;;;0.79;99.21;100940.25;4972387;28;20397;-55
2022/01/08 10:12:51;;;;;;;34.03;18.58;;;;;;;0.77;99.00;100924.13;4971840;28;20276;-56
2022/01/08 10:18:11;;;;;;;36.58;19.73;;;;;;;0.82;98.74;100911.69;4972370;28;20130;-56
2022/01/08 10:20:40;;;;;;;38.60;19.83;;;;;;;0.89;98.66;100906.94;4972153;28;20519;-58
2022/01/08 10:23:17;;;;;;;37.70;19.65;;;;;;;0.91;98.92;100889.28;4971670;28;20053;-56
2022/01/08 10:26:02;;;;;;;35.13;17.55;;;;;;;1.01;98.49;100882.38;4971984;28;20038;-56
2022/01/08 10:28:32;;;;;;;34.58;18.77;;;;;;;1.03;98.55;100866.63;4970785;28;20037;-56
2022/01/08 10:31:06;;;;;;;35.35;18.05;;;;;;;1.08;98.78;100864.03;4975066;28;20473;-56
2022/01/08 10:33:31;;;;;;;37.03;19.55;;;;;;;1.11;98.24;100860.78;4975694;28;20039;-56
2022/01/08 10:35:56;;;;;;;38.40;19.77;;;;;;;1.13;97.85;100860.56;4976454;28;20050;-58
2022/01/08 10:38:21;;;;;;;35.72;18.83;;;;;;;1.13;97.37;100857.84;4976014;28;20517;-57
2022/01/08 10:40:46;;;;;;;36.22;18.65;;;;;;;1.14;98.11;100854.88;4975806;28;20046;-55
2022/01/08 10:43:27;;;;;;;36.40;18.52;;;;;;;1.15;97.51;100848.34;4975061;28;20031;-55
2022/01/08 10:45:54;;;;;;;32.83;17.35;;;;;;;1.18;97.61;100841.59;4975283;28;20047;-55
2022/01/08 10:48:29;;;;;;;35.92;18.08;;;;;;;1.11;97.83;100816.38;4973460;28;20057;-55
2022/01/08 10:51:08;;;;;;;34.70;19.20;;;;;;;1.16;97.48;100816.47;4975382;28;20431;-57
2022/01/08 10:53:52;;;;;;;34.42;17.83;;;;;;;1.25;97.74;100817.72;4975425;28;20027;-56
2022/01/08 10:56:21;;;;;;;33.30;18.38;;;;;;;1.23;97.60;100817.13;4975804;28;20109;-57
2022/01/08 10:58:52;;;;;;;31.38;16.67;;;;;;;1.31;96.96;100814.03;4975481;28;20405;-57
2022/01/08 11:01:38;;;;;;;30.23;16.15;;;;;;;1.36;97.50;100803.22;4973818;28;20042;-57
2022/01/08 11:04:07;;;;;;;32.70;16.60;;;;;;;1.34;96.24;100786.28;4975600;28;20069;-56
2022/01/08 11:06:33;;;;;;;29.50;15.10;;;;;;;1.44;96.47;100782.91;4975455;28;20022;-56
2022/01/08 11:09:02;;;;;;;30.75;15.65;;;;;;;1.49;96.03;100771.28;4975248;28;20031;-57
2022/01/08 11:11:30;;;;;;;32.80;15.70;;;;;;;1.55;96.27;100773.84;4975048;28;20027;-56
2022/01/08 11:14:04;;;;;;;28.55;14.65;;;;;;;1.54;95.42;100768.63;4975607;28;20106;-57
2022/01/08 11:16:30;;;;;;;29.98;14.18;;;;;;;1.63;95.89;100763.59;4975601;28;20043;-56
2022/01/08 11:18:57;;;;;;;29.23;15.60;;;;;;;1.64;95.38;100762.53;4975207;28;20026;-58
2022/01/08 11:21:24;;;;;;;32.08;16.42;;;;;;;1.67;95.70;100754.66;4975097;28;20030;-57
2022/01/08 11:23:50;;;;;;;32.30;15.68;;;;;;;1.72;95.10;100745.72;4974961;28;20039;-56
2022/01/08 11:26:15;;;;;;;28.02;14.20;;;;;;;1.75;95.02;100739.75;4974920;28;20046;-56
2022/01/08 11:28:46;;;;;;;29.52;14.52;;;;;;;1.76;94.67;100727.78;4974864;28;20030;-56